sensor_id;sensor_type;location;lat;lon;timestamp;temperature;humidity
17421;DHT22;8828;48.800;9.540;2022-07-21T00:02:09;23.80;99.90
17421;DHT22;8828;48.800;9.540;2022-07-21T00:04:37;23.80;99.90
17421;DHT22;8828;48.800;9.540;2022-07-21T00:07:07;23.80;99.90
17421;DHT22;8828;48.800;9.540;2022-07-21T00:09:35;23.70;99.90
17421;DHT22;8828;48.800;9.540;2022-07-21T00:12:04;23.70;99.90
17421;DHT22;8828;48.800;9.540;2022-07-21T00:14:32;23.70;99.90
17421;DHT22;8828;48.800;9.540;2022-07-21T00:17:00;23.70;99.90
17421;DHT22;8828;48.800;9.540;2022-07-21T00:19:28;23.70;99.90
17421;DHT22;8828;48.800;9.540;2022-07-21T00:21:56;23.60;99.90
17421;DHT22;8828;48.800;9.540;2022-07-21T00:24:25;23.60;99.90
17421;DHT22;8828;48.800;9.540;2022-07-21T00:26:53;23.60;99.90
17421;DHT22;8828;48.800;9.540;2022-07-21T00:29:21;23.60;99.90
17421;DHT22;8828;48.800;9.540;2022-07-21T00:31:49;23.60;99.90
17421;DHT22;8828;48.800;9.540;2022-07-21T00:34:17;23.60;99.90
17421;DHT22;8828;48.800;9.540;2022-07-21T00:36:46;23.50;99.90
17421;DHT22;8828;48.800;9.540;2022-07-21T00:39:14;23.50;99.90
17421;DHT22;8828;48.800;9.540;2022-07-21T00:41:44;23.50;99.90
17421;DHT22;8828;48.800;9.540;2022-07-21T00:44:19;23.40;99.90
17421;DHT22;8828;48.800;9.540;2022-07-21T00:46:48;23.40;99.90
17421;DHT22;8828;48.800;9.540;2022-07-21T00:49:16;23.50;99.90
17421;DHT22;8828;48.800;9.540;2022-07-21T00:51:44;23.40;99.90
17421;DHT22;8828;48.800;9.540;2022-07-21T00:54:13;23.40;99.90
17421;DHT22;8828;48.800;9.540;2022-07-21T00:56:45;23.40;99.90
17421;DHT22;8828;48.800;9.540;2022-07-21T00:59:14;23.40;99.90
17421;DHT22;8828;48.800;9.540;2022-07-21T01:01:42;23.30;99.90
17421;DHT22;8828;48.800;9.540;2022-07-21T01:04:11;23.30;99.90
17421;DHT22;8828;48.800;9.540;2022-07-21T01:06:38;23.30;99.90
17421;DHT22;8828;48.800;9.540;2022-07-21T01:09:07;23.30;99.90
17421;DHT22;8828;48.800;9.540;2022-07-21T01:11:37;23.30;99.90
17421;DHT22;8828;48.800;9.540;2022-07-21T01:14:07;23.30;99.90
17421;DHT22;8828;48.800;9.540;2022-07-21T01:16:35;23.30;99.90
17421;DHT22;8828;48.800;9.540;2022-07-21T01:19:04;23.30;99.90
17421;DHT22;8828;48.800;9.540;2022-07-21T01:21:36;23.20;99.90
17421;DHT22;8828;48.800;9.540;2022-07-21T01:24:05;23.20;99.90
17421;DHT22;8828;48.800;9.540;2022-07-21T01:26:41;23.20;99.90
17421;DHT22;8828;48.800;9.540;2022-07-21T01:29:09;23.30;99.90
17421;DHT22;8828;48.800;9.540;2022-07-21T01:31:39;23.30;99.90
17421;DHT22;8828;48.800;9.540;2022-07-21T01:34:09;23.30;99.90
17421;DHT22;8828;48.800;9.540;2022-07-21T01:36:39;23.40;99.90
17421;DHT22;8828;48.800;9.540;2022-07-21T01:39:07;23.40;99.90
17421;DHT22;8828;48.800;9.540;2022-07-21T01:41:52;23.40;99.90
17421;DHT22;8828;48.800;9.540;2022-07-21T01:44:21;23.30;99.90
17421;DHT22;8828;48.800;9.540;2022-07-21T01:46:50;23.30;99.90
17421;DHT22;8828;48.800;9.540;2022-07-21T01:49:20;23.30;99.90
17421;DHT22;8828;48.800;9.540;2022-07-21T01:51:50;23.30;99.90
17421;DHT22;8828;48.800;9.540;2022-07-21T01:54:18;23.30;99.90
17421;DHT22;8828;48.800;9.540;2022-07-21T01:56:50;23.30;99.90
17421;DHT22;8828;48.800;9.540;2022-07-21T01:59:18;23.30;99.90
17421;DHT22;8828;48.800;9.540;2022-07-21T02:01:46;23.30;99.90
17421;DHT22;8828;48.800;9.540;2022-07-21T02:04:14;23.30;99.90
17421;DHT22;8828;48.800;9.540;2022-07-21T02:06:43;23.30;99.90
17421;DHT22;8828;48.800;9.540;2022-07-21T02:09:13;23.30;99.90
17421;DHT22;8828;48.800;9.540;2022-07-21T02:11:41;23.30;99.90
17421;DHT22;8828;48.800;9.540;2022-07-21T02:14:09;23.30;99.90
17421;DHT22;8828;48.800;9.540;2022-07-21T02:16:37;23.30;99.90
17421;DHT22;8828;48.800;9.540;2022-07-21T02:19:05;23.30;99.90
17421;DHT22;8828;48.800;9.540;2022-07-21T02:21:35;23.30;99.90
17421;DHT22;8828;48.800;9.540;2022-07-21T02:24:04;23.40;99.90
17421;DHT22;8828;48.800;9.540;2022-07-21T02:26:34;23.30;99.90
17421;DHT22;8828;48.800;9.540;2022-07-21T02:29:02;23.30;99.90
17421;DHT22;8828;48.800;9.540;2022-07-21T02:31:30;23.30;99.90
17421;DHT22;8828;48.800;9.540;2022-07-21T02:33:58;23.30;99.90
17421;DHT22;8828;48.800;9.540;2022-07-21T02:36:26;23.40;99.90
17421;DHT22;8828;48.800;9.540;2022-07-21T02:38:54;23.40;99.90
17421;DHT22;8828;48.800;9.540;2022-07-21T02:41:22;23.30;99.90
17421;DHT22;8828;48.800;9.540;2022-07-21T02:43:51;23.30;99.90
17421;DHT22;8828;48.800;9.540;2022-07-21T02:46:19;23.20;99.90
17421;DHT22;8828;48.800;9.540;2022-07-21T02:48:47;23.20;99.90
17421;DHT22;8828;48.800;9.540;2022-07-21T02:51:16;23.20;99.90
17421;DHT22;8828;48.800;9.540;2022-07-21T02:53:44;23.20;99.90
17421;DHT22;8828;48.800;9.540;2022-07-21T02:56:12;23.20;99.90
17421;DHT22;8828;48.800;9.540;2022-07-21T02:58:40;23.20;99.90
17421;DHT22;8828;48.800;9.540;2022-07-21T03:01:09;23.20;99.90
17421;DHT22;8828;48.800;9.540;2022-07-21T03:03:38;23.20;99.90
17421;DHT22;8828;48.800;9.540;2022-07-21T03:06:06;23.30;99.90
17421;DHT22;8828;48.800;9.540;2022-07-21T03:08:34;23.20;99.90
17421;DHT22;8828;48.800;9.540;2022-07-21T03:11:02;23.20;99.90
17421;DHT22;8828;48.800;9.540;2022-07-21T03:13:30;23.20;99.90
17421;DHT22;8828;48.800;9.540;2022-07-21T03:15:58;23.10;99.90
17421;DHT22;8828;48.800;9.540;2022-07-21T03:18:28;23.10;99.90
17421;DHT22;8828;48.800;9.540;2022-07-21T03:20:56;23.10;99.90
17421;DHT22;8828;48.800;9.540;2022-07-21T03:23:24;23.10;99.90
17421;DHT22;8828;48.800;9.540;2022-07-21T03:25:52;23.10;99.90
17421;DHT22;8828;48.800;9.540;2022-07-21T03:28:20;23.00;99.90
17421;DHT22;8828;48.800;9.540;2022-07-21T03:30:48;23.00;99.90
17421;DHT22;8828;48.800;9.540;2022-07-21T03:33:16;23.10;99.90
17421;DHT22;8828;48.800;9.540;2022-07-21T03:35:46;23.10;99.90
17421;DHT22;8828;48.800;9.540;2022-07-21T03:38:14;23.10;99.90
17421;DHT22;8828;48.800;9.540;2022-07-21T03:40:42;23.10;99.90
17421;DHT22;8828;48.800;9.540;2022-07-21T03:43:09;23.10;99.90
17421;DHT22;8828;48.800;9.540;2022-07-21T03:45:38;23.10;99.90
17421;DHT22;8828;48.800;9.540;2022-07-21T03:48:06;23.10;99.90
17421;DHT22;8828;48.800;9.540;2022-07-21T03:50:36;23.10;99.90
17421;DHT22;8828;48.800;9.540;2022-07-21T03:53:06;23.10;99.90
17421;DHT22;8828;48.800;9.540;2022-07-21T03:55:34;23.10;99.90
17421;DHT22;8828;48.800;9.540;2022-07-21T03:58:05;23.10;99.90
17421;DHT22;8828;48.800;9.540;2022-07-21T04:00:35;23.10;99.90
17421;DHT22;8828;48.800;9.540;2022-07-21T04:03:04;23.20;99.90
17421;DHT22;8828;48.800;9.540;2022-07-21T04:05:33;23.10;99.90
17421;DHT22;8828;48.800;9.540;2022-07-21T04:08:02;23.10;99.90
17421;DHT22;8828;48.800;9.540;2022-07-21T04:10:33;23.10;99.90
17421;DHT22;8828;48.800;9.540;2022-07-21T04:13:04;23.10;99.90
17421;DHT22;8828;48.800;9.540;2022-07-21T04:15:33;23.10;99.90
17421;DHT22;8828;48.800;9.540;2022-07-21T04:18:02;23.10;99.90
17421;DHT22;8828;48.800;9.540;2022-07-21T04:20:31;23.10;99.90
17421;DHT22;8828;48.800;9.540;2022-07-21T04:22:59;23.10;99.90
17421;DHT22;8828;48.800;9.540;2022-07-21T04:25:27;23.00;99.90
17421;DHT22;8828;48.800;9.540;2022-07-21T04:27:57;23.00;99.90
17421;DHT22;8828;48.800;9.540;2022-07-21T04:30:25;23.10;99.90
17421;DHT22;8828;48.800;9.540;2022-07-21T04:32:53;23.00;99.90
17421;DHT22;8828;48.800;9.540;2022-07-21T04:35:22;23.00;99.90
17421;DHT22;8828;48.800;9.540;2022-07-21T04:37:50;23.00;99.90
17421;DHT22;8828;48.800;9.540;2022-07-21T04:40:18;23.00;99.90
17421;DHT22;8828;48.800;9.540;2022-07-21T04:42:46;23.00;99.90
17421;DHT22;8828;48.800;9.540;2022-07-21T04:45:16;23.00;99.90
17421;DHT22;8828;48.800;9.540;2022-07-21T04:47:46;23.00;99.90
17421;DHT22;8828;48.800;9.540;2022-07-21T04:50:14;23.00;99.90
17421;DHT22;8828;48.800;9.540;2022-07-21T04:52:43;22.90;99.90
17421;DHT22;8828;48.800;9.540;2022-07-21T04:55:12;22.90;99.90
17421;DHT22;8828;48.800;9.540;2022-07-21T04:57:42;22.90;99.90
17421;DHT22;8828;48.800;9.540;2022-07-21T05:00:12;22.90;99.90
17421;DHT22;8828;48.800;9.540;2022-07-21T05:02:42;22.90;99.90
17421;DHT22;8828;48.800;9.540;2022-07-21T05:05:10;22.90;99.90
17421;DHT22;8828;48.800;9.540;2022-07-21T05:07:38;22.90;99.90
17421;DHT22;8828;48.800;9.540;2022-07-21T05:10:08;22.90;99.90
17421;DHT22;8828;48.800;9.540;2022-07-21T05:12:37;22.90;99.90
17421;DHT22;8828;48.800;9.540;2022-07-21T05:15:08;22.90;99.90
17421;DHT22;8828;48.800;9.540;2022-07-21T05:17:38;22.90;99.90
17421;DHT22;8828;48.800;9.540;2022-07-21T05:20:08;23.00;99.90
17421;DHT22;8828;48.800;9.540;2022-07-21T05:22:37;23.00;99.90
17421;DHT22;8828;48.800;9.540;2022-07-21T05:25:06;23.00;99.90
17421;DHT22;8828;48.800;9.540;2022-07-21T05:27:35;23.00;99.90
17421;DHT22;8828;48.800;9.540;2022-07-21T05:30:03;23.00;99.90
17421;DHT22;8828;48.800;9.540;2022-07-21T05:32:32;22.90;99.90
17421;DHT22;8828;48.800;9.540;2022-07-21T05:35:00;22.90;99.90
17421;DHT22;8828;48.800;9.540;2022-07-21T05:37:29;22.90;99.90
17421;DHT22;8828;48.800;9.540;2022-07-21T05:39:57;22.90;99.90
17421;DHT22;8828;48.800;9.540;2022-07-21T05:42:25;22.90;99.90
17421;DHT22;8828;48.800;9.540;2022-07-21T05:44:53;22.90;99.90
17421;DHT22;8828;48.800;9.540;2022-07-21T05:47:22;22.90;99.90
17421;DHT22;8828;48.800;9.540;2022-07-21T05:49:49;22.90;99.90
17421;DHT22;8828;48.800;9.540;2022-07-21T05:52:17;22.90;99.90
17421;DHT22;8828;48.800;9.540;2022-07-21T05:54:49;22.90;99.90
17421;DHT22;8828;48.800;9.540;2022-07-21T05:57:17;22.90;99.90
17421;DHT22;8828;48.800;9.540;2022-07-21T05:59:45;23.00;99.90
17421;DHT22;8828;48.800;9.540;2022-07-21T06:02:13;22.90;99.90
17421;DHT22;8828;48.800;9.540;2022-07-21T06:04:41;23.00;99.90
17421;DHT22;8828;48.800;9.540;2022-07-21T06:07:10;23.00;99.90
17421;DHT22;8828;48.800;9.540;2022-07-21T06:09:38;23.10;99.90
17421;DHT22;8828;48.800;9.540;2022-07-21T06:12:07;23.10;99.90
17421;DHT22;8828;48.800;9.540;2022-07-21T06:14:35;23.10;99.90
17421;DHT22;8828;48.800;9.540;2022-07-21T06:17:03;23.10;99.90
17421;DHT22;8828;48.800;9.540;2022-07-21T06:19:31;23.20;99.90
17421;DHT22;8828;48.800;9.540;2022-07-21T06:21:59;23.30;99.90
17421;DHT22;8828;48.800;9.540;2022-07-21T06:24:28;23.30;99.90
17421;DHT22;8828;48.800;9.540;2022-07-21T06:26:56;23.30;99.90
17421;DHT22;8828;48.800;9.540;2022-07-21T06:29:33;23.40;99.90
17421;DHT22;8828;48.800;9.540;2022-07-21T06:32:01;23.30;99.90
17421;DHT22;8828;48.800;9.540;2022-07-21T06:34:29;23.40;99.90
17421;DHT22;8828;48.800;9.540;2022-07-21T06:36:57;23.40;99.90
17421;DHT22;8828;48.800;9.540;2022-07-21T06:39:25;23.40;99.90
17421;DHT22;8828;48.800;9.540;2022-07-21T06:41:53;23.40;99.90
17421;DHT22;8828;48.800;9.540;2022-07-21T06:44:21;23.40;99.90
17421;DHT22;8828;48.800;9.540;2022-07-21T06:46:52;23.40;99.90
17421;DHT22;8828;48.800;9.540;2022-07-21T06:49:20;23.50;99.90
17421;DHT22;8828;48.800;9.540;2022-07-21T06:51:48;23.50;99.90
17421;DHT22;8828;48.800;9.540;2022-07-21T06:54:17;23.60;99.90
17421;DHT22;8828;48.800;9.540;2022-07-21T06:56:45;23.60;99.90
17421;DHT22;8828;48.800;9.540;2022-07-21T06:59:13;23.60;99.90
17421;DHT22;8828;48.800;9.540;2022-07-21T07:01:41;23.60;99.90
17421;DHT22;8828;48.800;9.540;2022-07-21T07:04:11;23.70;99.90
17421;DHT22;8828;48.800;9.540;2022-07-21T07:06:40;23.70;99.90
17421;DHT22;8828;48.800;9.540;2022-07-21T07:09:08;23.70;99.90
17421;DHT22;8828;48.800;9.540;2022-07-21T07:11:36;23.70;99.90
17421;DHT22;8828;48.800;9.540;2022-07-21T07:14:03;23.70;99.90
17421;DHT22;8828;48.800;9.540;2022-07-21T07:16:44;23.70;99.90
17421;DHT22;8828;48.800;9.540;2022-07-21T07:19:13;23.80;99.90
17421;DHT22;8828;48.800;9.540;2022-07-21T07:21:41;23.90;99.90
17421;DHT22;8828;48.800;9.540;2022-07-21T07:24:09;23.90;99.90
17421;DHT22;8828;48.800;9.540;2022-07-21T07:26:37;23.90;99.90
17421;DHT22;8828;48.800;9.540;2022-07-21T07:29:06;24.00;99.90
17421;DHT22;8828;48.800;9.540;2022-07-21T07:31:34;24.00;99.90
17421;DHT22;8828;48.800;9.540;2022-07-21T07:34:02;24.10;99.90
17421;DHT22;8828;48.800;9.540;2022-07-21T07:36:32;24.10;99.90
17421;DHT22;8828;48.800;9.540;2022-07-21T07:39:09;24.10;99.90
17421;DHT22;8828;48.800;9.540;2022-07-21T07:41:38;24.10;99.90
17421;DHT22;8828;48.800;9.540;2022-07-21T07:44:06;24.00;99.90
17421;DHT22;8828;48.800;9.540;2022-07-21T07:46:34;24.10;99.90
17421;DHT22;8828;48.800;9.540;2022-07-21T07:49:03;24.10;99.90
17421;DHT22;8828;48.800;9.540;2022-07-21T07:51:43;24.20;99.90
17421;DHT22;8828;48.800;9.540;2022-07-21T07:54:11;24.20;99.90
17421;DHT22;8828;48.800;9.540;2022-07-21T07:56:39;24.30;99.90
17421;DHT22;8828;48.800;9.540;2022-07-21T07:59:07;24.40;99.90
17421;DHT22;8828;48.800;9.540;2022-07-21T08:01:36;24.40;99.90
17421;DHT22;8828;48.800;9.540;2022-07-21T08:04:04;24.50;99.90
17421;DHT22;8828;48.800;9.540;2022-07-21T08:06:32;24.50;99.90
17421;DHT22;8828;48.800;9.540;2022-07-21T08:09:02;24.50;99.90
17421;DHT22;8828;48.800;9.540;2022-07-21T08:11:30;24.50;99.90
17421;DHT22;8828;48.800;9.540;2022-07-21T08:13:58;24.60;99.90
17421;DHT22;8828;48.800;9.540;2022-07-21T08:16:26;24.60;99.90
17421;DHT22;8828;48.800;9.540;2022-07-21T08:18:54;24.70;99.90
17421;DHT22;8828;48.800;9.540;2022-07-21T08:21:22;24.70;99.90
17421;DHT22;8828;48.800;9.540;2022-07-21T08:24:18;24.70;99.90
17421;DHT22;8828;48.800;9.540;2022-07-21T08:26:46;24.60;99.90
17421;DHT22;8828;48.800;9.540;2022-07-21T08:29:14;24.70;99.90
17421;DHT22;8828;48.800;9.540;2022-07-21T08:31:42;24.70;99.90
17421;DHT22;8828;48.800;9.540;2022-07-21T08:34:10;24.70;99.90
17421;DHT22;8828;48.800;9.540;2022-07-21T08:36:38;24.70;99.90
17421;DHT22;8828;48.800;9.540;2022-07-21T08:39:06;24.60;99.90
17421;DHT22;8828;48.800;9.540;2022-07-21T08:41:37;24.60;99.90
17421;DHT22;8828;48.800;9.540;2022-07-21T08:44:07;24.50;99.90
17421;DHT22;8828;48.800;9.540;2022-07-21T08:46:38;24.50;99.90
17421;DHT22;8828;48.800;9.540;2022-07-21T08:49:09;24.50;99.90
17421;DHT22;8828;48.800;9.540;2022-07-21T08:51:38;24.60;99.90
17421;DHT22;8828;48.800;9.540;2022-07-21T08:54:06;24.70;99.90
17421;DHT22;8828;48.800;9.540;2022-07-21T08:56:34;24.80;99.90
17421;DHT22;8828;48.800;9.540;2022-07-21T08:59:03;24.80;99.90
17421;DHT22;8828;48.800;9.540;2022-07-21T09:01:32;24.90;99.90
17421;DHT22;8828;48.800;9.540;2022-07-21T09:04:19;24.90;99.90
17421;DHT22;8828;48.800;9.540;2022-07-21T09:06:54;24.90;99.90
17421;DHT22;8828;48.800;9.540;2022-07-21T09:09:24;24.90;99.90
17421;DHT22;8828;48.800;9.540;2022-07-21T09:11:53;24.90;99.90
17421;DHT22;8828;48.800;9.540;2022-07-21T09:14:27;24.90;99.90
17421;DHT22;8828;48.800;9.540;2022-07-21T09:16:57;24.90;99.90
17421;DHT22;8828;48.800;9.540;2022-07-21T09:19:35;24.90;99.90
17421;DHT22;8828;48.800;9.540;2022-07-21T09:22:07;24.90;99.90
17421;DHT22;8828;48.800;9.540;2022-07-21T09:24:39;24.90;99.90
17421;DHT22;8828;48.800;9.540;2022-07-21T09:27:09;24.90;99.90
17421;DHT22;8828;48.800;9.540;2022-07-21T09:29:42;25.00;99.90
17421;DHT22;8828;48.800;9.540;2022-07-21T09:32:18;25.10;99.90
17421;DHT22;8828;48.800;9.540;2022-07-21T09:34:48;25.30;99.90
17421;DHT22;8828;48.800;9.540;2022-07-21T09:37:17;25.40;99.90
17421;DHT22;8828;48.800;9.540;2022-07-21T09:39:48;25.50;99.90
17421;DHT22;8828;48.800;9.540;2022-07-21T09:42:19;25.50;99.90
17421;DHT22;8828;48.800;9.540;2022-07-21T09:44:50;25.60;99.90
17421;DHT22;8828;48.800;9.540;2022-07-21T09:47:21;25.60;99.90
17421;DHT22;8828;48.800;9.540;2022-07-21T09:49:50;25.60;99.90
17421;DHT22;8828;48.800;9.540;2022-07-21T09:52:39;25.70;99.90
17421;DHT22;8828;48.800;9.540;2022-07-21T09:55:10;25.80;99.90
17421;DHT22;8828;48.800;9.540;2022-07-21T09:57:38;25.90;99.90
17421;DHT22;8828;48.800;9.540;2022-07-21T10:00:12;26.00;99.90
17421;DHT22;8828;48.800;9.540;2022-07-21T10:02:46;26.00;99.90
17421;DHT22;8828;48.800;9.540;2022-07-21T10:05:17;26.00;99.90
17421;DHT22;8828;48.800;9.540;2022-07-21T10:07:47;26.00;99.90
17421;DHT22;8828;48.800;9.540;2022-07-21T10:10:15;26.00;99.90
17421;DHT22;8828;48.800;9.540;2022-07-21T10:12:47;26.00;99.90
17421;DHT22;8828;48.800;9.540;2022-07-21T10:15:17;26.10;99.90
17421;DHT22;8828;48.800;9.540;2022-07-21T10:17:47;26.10;99.90
17421;DHT22;8828;48.800;9.540;2022-07-21T10:20:24;26.30;99.90
17421;DHT22;8828;48.800;9.540;2022-07-21T10:22:59;26.40;99.90
17421;DHT22;8828;48.800;9.540;2022-07-21T10:25:30;26.50;99.90
17421;DHT22;8828;48.800;9.540;2022-07-21T10:28:18;26.70;99.90
17421;DHT22;8828;48.800;9.540;2022-07-21T10:30:50;26.90;99.90
17421;DHT22;8828;48.800;9.540;2022-07-21T10:33:20;27.10;99.90
17421;DHT22;8828;48.800;9.540;2022-07-21T10:35:50;27.30;99.90
17421;DHT22;8828;48.800;9.540;2022-07-21T10:38:26;27.70;99.90
17421;DHT22;8828;48.800;9.540;2022-07-21T10:40:55;28.20;99.90
17421;DHT22;8828;48.800;9.540;2022-07-21T10:43:39;28.50;99.90
17421;DHT22;8828;48.800;9.540;2022-07-21T10:46:33;28.80;99.90
17421;DHT22;8828;48.800;9.540;2022-07-21T10:49:03;28.90;99.90
17421;DHT22;8828;48.800;9.540;2022-07-21T10:51:33;29.00;99.90
17421;DHT22;8828;48.800;9.540;2022-07-21T10:54:21;29.10;99.90
17421;DHT22;8828;48.800;9.540;2022-07-21T10:57:28;29.20;99.90
17421;DHT22;8828;48.800;9.540;2022-07-21T11:00:24;29.30;99.90
17421;DHT22;8828;48.800;9.540;2022-07-21T11:02:58;29.40;99.90
17421;DHT22;8828;48.800;9.540;2022-07-21T11:05:28;29.50;99.90
17421;DHT22;8828;48.800;9.540;2022-07-21T11:08:17;29.60;99.90
17421;DHT22;8828;48.800;9.540;2022-07-21T11:10:48;29.80;99.90
17421;DHT22;8828;48.800;9.540;2022-07-21T11:13:18;30.00;99.90
17421;DHT22;8828;48.800;9.540;2022-07-21T11:16:05;30.10;99.90
17421;DHT22;8828;48.800;9.540;2022-07-21T11:18:35;30.10;99.90
17421;DHT22;8828;48.800;9.540;2022-07-21T11:21:07;30.10;99.90
17421;DHT22;8828;48.800;9.540;2022-07-21T11:23:46;30.20;99.90
17421;DHT22;8828;48.800;9.540;2022-07-21T11:26:16;30.10;99.90
17421;DHT22;8828;48.800;9.540;2022-07-21T11:28:45;30.10;99.90
17421;DHT22;8828;48.800;9.540;2022-07-21T11:31:16;30.20;99.90
17421;DHT22;8828;48.800;9.540;2022-07-21T11:33:47;30.20;99.90
17421;DHT22;8828;48.800;9.540;2022-07-21T11:36:25;30.30;99.90
17421;DHT22;8828;48.800;9.540;2022-07-21T11:38:58;30.50;99.90
17421;DHT22;8828;48.800;9.540;2022-07-21T11:41:27;30.50;99.90
17421;DHT22;8828;48.800;9.540;2022-07-21T11:43:54;30.50;99.90
17421;DHT22;8828;48.800;9.540;2022-07-21T11:46:23;30.60;99.90
17421;DHT22;8828;48.800;9.540;2022-07-21T11:49:03;30.60;99.90
17421;DHT22;8828;48.800;9.540;2022-07-21T11:51:31;30.60;99.90
17421;DHT22;8828;48.800;9.540;2022-07-21T11:53:59;30.50;99.90
17421;DHT22;8828;48.800;9.540;2022-07-21T11:56:27;30.50;99.90
17421;DHT22;8828;48.800;9.540;2022-07-21T11:59:09;30.50;99.90
17421;DHT22;8828;48.800;9.540;2022-07-21T12:02:01;30.50;99.90
17421;DHT22;8828;48.800;9.540;2022-07-21T12:04:37;30.50;99.90
17421;DHT22;8828;48.800;9.540;2022-07-21T12:07:10;30.60;99.90
17421;DHT22;8828;48.800;9.540;2022-07-21T12:09:40;30.70;99.90
17421;DHT22;8828;48.800;9.540;2022-07-21T12:12:21;30.80;99.90
17421;DHT22;8828;48.800;9.540;2022-07-21T12:14:54;30.80;99.90
17421;DHT22;8828;48.800;9.540;2022-07-21T12:17:33;30.90;99.90
17421;DHT22;8828;48.800;9.540;2022-07-21T12:20:04;30.90;99.90
17421;DHT22;8828;48.800;9.540;2022-07-21T12:22:35;31.00;99.90
17421;DHT22;8828;48.800;9.540;2022-07-21T12:25:04;31.00;99.90
17421;DHT22;8828;48.800;9.540;2022-07-21T12:27:35;30.90;99.90
17421;DHT22;8828;48.800;9.540;2022-07-21T12:30:05;30.90;99.90
17421;DHT22;8828;48.800;9.540;2022-07-21T12:32:39;30.90;99.90
17421;DHT22;8828;48.800;9.540;2022-07-21T12:35:25;30.80;99.90
17421;DHT22;8828;48.800;9.540;2022-07-21T12:38:07;30.90;99.90
17421;DHT22;8828;48.800;9.540;2022-07-21T12:40:37;30.90;99.90
17421;DHT22;8828;48.800;9.540;2022-07-21T12:43:26;30.90;99.90
17421;DHT22;8828;48.800;9.540;2022-07-21T12:45:56;30.90;99.90
17421;DHT22;8828;48.800;9.540;2022-07-21T12:48:26;30.90;99.90
17421;DHT22;8828;48.800;9.540;2022-07-21T12:51:05;30.90;99.90
17421;DHT22;8828;48.800;9.540;2022-07-21T12:53:38;31.00;99.00
17421;DHT22;8828;48.800;9.540;2022-07-21T12:56:07;31.10;99.90
17421;DHT22;8828;48.800;9.540;2022-07-21T12:58:36;31.20;99.90
17421;DHT22;8828;48.800;9.540;2022-07-21T13:01:05;31.20;99.00
17421;DHT22;8828;48.800;9.540;2022-07-21T13:03:34;31.20;99.00
17421;DHT22;8828;48.800;9.540;2022-07-21T13:06:06;31.20;97.90
17421;DHT22;8828;48.800;9.540;2022-07-21T13:08:36;31.20;97.10
17421;DHT22;8828;48.800;9.540;2022-07-21T13:11:05;31.20;96.70
17421;DHT22;8828;48.800;9.540;2022-07-21T13:13:34;31.10;95.20
17421;DHT22;8828;48.800;9.540;2022-07-21T13:16:03;31.00;94.30
17421;DHT22;8828;48.800;9.540;2022-07-21T13:18:32;30.90;92.80
17421;DHT22;8828;48.800;9.540;2022-07-21T13:21:01;30.90;91.40
17421;DHT22;8828;48.800;9.540;2022-07-21T13:23:31;30.80;91.70
17421;DHT22;8828;48.800;9.540;2022-07-21T13:26:00;30.70;91.10
17421;DHT22;8828;48.800;9.540;2022-07-21T13:28:33;30.70;91.60
17421;DHT22;8828;48.800;9.540;2022-07-21T13:31:04;30.80;92.70
17421;DHT22;8828;48.800;9.540;2022-07-21T13:33:34;31.00;92.40
17421;DHT22;8828;48.800;9.540;2022-07-21T13:36:03;31.00;90.90
17421;DHT22;8828;48.800;9.540;2022-07-21T13:38:33;31.00;91.10
17421;DHT22;8828;48.800;9.540;2022-07-21T13:41:01;31.00;90.90
17421;DHT22;8828;48.800;9.540;2022-07-21T13:43:49;31.00;90.80
17421;DHT22;8828;48.800;9.540;2022-07-21T13:46:18;31.00;90.70
17421;DHT22;8828;48.800;9.540;2022-07-21T13:48:47;30.90;90.80
17421;DHT22;8828;48.800;9.540;2022-07-21T13:51:17;30.90;90.90
17421;DHT22;8828;48.800;9.540;2022-07-21T13:53:48;30.90;90.70
17421;DHT22;8828;48.800;9.540;2022-07-21T13:56:16;31.00;90.40
17421;DHT22;8828;48.800;9.540;2022-07-21T13:58:44;30.90;90.70
17421;DHT22;8828;48.800;9.540;2022-07-21T14:01:13;30.90;90.50
17421;DHT22;8828;48.800;9.540;2022-07-21T14:03:43;31.00;91.20
17421;DHT22;8828;48.800;9.540;2022-07-21T14:06:11;31.00;91.00
17421;DHT22;8828;48.800;9.540;2022-07-21T14:08:39;31.10;90.70
17421;DHT22;8828;48.800;9.540;2022-07-21T14:11:09;31.10;87.80
17421;DHT22;8828;48.800;9.540;2022-07-21T14:13:37;30.90;88.50
17421;DHT22;8828;48.800;9.540;2022-07-21T14:16:06;30.70;88.10
17421;DHT22;8828;48.800;9.540;2022-07-21T14:18:34;30.40;89.20
17421;DHT22;8828;48.800;9.540;2022-07-21T14:21:03;30.20;89.40
17421;DHT22;8828;48.800;9.540;2022-07-21T14:23:31;29.90;90.00
17421;DHT22;8828;48.800;9.540;2022-07-21T14:25:59;29.70;89.80
17421;DHT22;8828;48.800;9.540;2022-07-21T14:28:29;29.50;89.80
17421;DHT22;8828;48.800;9.540;2022-07-21T14:30:57;29.30;90.30
17421;DHT22;8828;48.800;9.540;2022-07-21T14:33:26;29.10;90.20
17421;DHT22;8828;48.800;9.540;2022-07-21T14:35:57;28.90;90.60
17421;DHT22;8828;48.800;9.540;2022-07-21T14:38:25;28.70;90.80
17421;DHT22;8828;48.800;9.540;2022-07-21T14:40:53;28.60;91.10
17421;DHT22;8828;48.800;9.540;2022-07-21T14:43:21;28.50;91.20
17421;DHT22;8828;48.800;9.540;2022-07-21T14:45:50;28.40;91.30
17421;DHT22;8828;48.800;9.540;2022-07-21T14:48:18;28.30;91.50
17421;DHT22;8828;48.800;9.540;2022-07-21T14:50:50;28.20;92.20
17421;DHT22;8828;48.800;9.540;2022-07-21T14:53:17;28.20;91.70
17421;DHT22;8828;48.800;9.540;2022-07-21T14:55:46;28.20;92.00
17421;DHT22;8828;48.800;9.540;2022-07-21T14:58:14;28.20;91.90
17421;DHT22;8828;48.800;9.540;2022-07-21T15:00:42;28.20;91.70
17421;DHT22;8828;48.800;9.540;2022-07-21T15:03:11;28.20;91.70
17421;DHT22;8828;48.800;9.540;2022-07-21T15:05:41;28.20;92.00
17421;DHT22;8828;48.800;9.540;2022-07-21T15:08:09;28.10;91.80
17421;DHT22;8828;48.800;9.540;2022-07-21T15:10:39;28.10;92.10
17421;DHT22;8828;48.800;9.540;2022-07-21T15:13:07;28.00;92.40
17421;DHT22;8828;48.800;9.540;2022-07-21T15:15:35;28.20;92.00
17421;DHT22;8828;48.800;9.540;2022-07-21T15:18:04;28.40;91.40
17421;DHT22;8828;48.800;9.540;2022-07-21T15:20:34;28.70;91.40
17421;DHT22;8828;48.800;9.540;2022-07-21T15:23:02;29.00;91.00
17421;DHT22;8828;48.800;9.540;2022-07-21T15:25:30;29.30;91.50
17421;DHT22;8828;48.800;9.540;2022-07-21T15:27:58;29.20;90.30
17421;DHT22;8828;48.800;9.540;2022-07-21T15:30:26;29.00;90.40
17421;DHT22;8828;48.800;9.540;2022-07-21T15:32:54;28.80;89.80
17421;DHT22;8828;48.800;9.540;2022-07-21T15:35:22;28.60;90.10
17421;DHT22;8828;48.800;9.540;2022-07-21T15:37:52;28.40;90.20
17421;DHT22;8828;48.800;9.540;2022-07-21T15:40:20;28.30;90.30
17421;DHT22;8828;48.800;9.540;2022-07-21T15:42:49;28.20;90.80
17421;DHT22;8828;48.800;9.540;2022-07-21T15:45:17;28.10;91.00
17421;DHT22;8828;48.800;9.540;2022-07-21T15:47:45;28.10;90.80
17421;DHT22;8828;48.800;9.540;2022-07-21T15:50:13;28.00;90.60
17421;DHT22;8828;48.800;9.540;2022-07-21T15:52:41;27.90;90.80
17421;DHT22;8828;48.800;9.540;2022-07-21T15:55:11;27.90;90.90
17421;DHT22;8828;48.800;9.540;2022-07-21T15:57:39;27.80;90.90
17421;DHT22;8828;48.800;9.540;2022-07-21T16:00:09;27.80;90.60
17421;DHT22;8828;48.800;9.540;2022-07-21T16:02:38;27.80;90.70
17421;DHT22;8828;48.800;9.540;2022-07-21T16:05:08;27.80;90.70